Bucks Harbor, Maine
Current Conditions -  °F | °C
As of 10:55 AM on Friday 31 Oct 2014 (Local Time) from KBHB Reporting Station
Clear Clear  
Wind Chill: 43°   Ceiling: Unl
Heat Index: 46°   Visibility: 10mi
Dew Point: 36°   Wind: 7mph
Humidity: 66%   Direction: 30°NNE
Pressure: 30.05"   Gusts: NA
Location:  44.6541°N, 67.405°W
Report Text: KBHB 311455Z AUTO 03006KT 10SM CLR 08/02 A3005 RMK AO1 54000
Loading
Personal Weather Stations






























Interactive Weather Map
Tropical Storm Tracking
New forecast layout! Learn more

10-Day Weather Forecast

Advertisements
Track Severe Weather on mobile